Time;durP1;ratioP1;P1;durP2;ratioP2;P2;SDS_P1;SDS_P2;PMS_P1;PMS_P2;Temp;Humidity;BMP_temperature;BMP_pressure;BME280_temperature;BME280_humidity;BME280_pressure;Samples;Min_cycle;Max_cycle;Signal;HPM_P1;HPM_P2
2022/01/03 00:00:26;;;;;;;15.07;11.70;;;9.20;1.00;;;;;;4993103;28;20437;-70
2022/01/03 00:02:57;;;;;;;13.10;9.43;;;9.30;1.00;;;;;;4994007;28;20397;-69
2022/01/03 00:05:24;;;;;;;21.20;11.57;;;9.20;1.00;;;;;;4993754;28;20420;-69
2022/01/03 00:07:49;;;;;;;12.10;8.70;;;9.20;1.00;;;;;;4993631;28;20417;-71
2022/01/03 00:10:17;;;;;;;10.43;8.97;;;9.20;1.00;;;;;;4992949;28;20427;-69
2022/01/03 00:12:44;;;;;;;13.40;8.80;;;9.20;1.00;;;;;;4994062;28;20175;-69
2022/01/03 00:15:15;;;;;;;11.27;7.80;;;9.20;1.00;;;;;;4993895;28;21034;-71
2022/01/03 00:17:42;;;;;;;8.23;7.43;;;9.20;1.00;;;;;;4993851;28;20401;-69
2022/01/03 00:20:10;;;;;;;12.30;7.07;;;9.20;1.00;;;;;;4975340;28;20442;-71
2022/01/03 00:22:44;;;;;;;12.70;7.37;;;9.10;1.00;;;;;;4994803;28;20407;-71
2022/01/03 00:25:16;;;;;;;7.53;6.27;;;9.10;1.00;;;;;;4997847;28;20417;-71
2022/01/03 00:28:04;;;;;;;7.67;5.97;;;9.10;1.00;;;;;;4997655;28;20410;-71
2022/01/03 00:30:33;;;;;;;9.23;6.27;;;9.10;1.00;;;;;;4996675;28;20441;-71
2022/01/03 00:33:01;;;;;;;10.23;5.73;;;9.00;1.00;;;;;;4980428;28;20463;-70
2022/01/03 00:35:28;;;;;;;7.03;5.77;;;9.00;1.00;;;;;;4997669;28;20451;-71
2022/01/03 00:37:59;;;;;;;9.30;5.83;;;9.00;1.00;;;;;;4980164;28;20544;-71
2022/01/03 00:40:25;;;;;;;5.80;5.27;;;9.00;1.00;;;;;;4996538;28;20918;-69
2022/01/03 00:42:51;;;;;;;6.50;5.33;;;9.00;1.00;;;;;;4997497;28;20404;-69
2022/01/03 00:45:17;;;;;;;7.70;5.93;;;9.00;1.00;;;;;;4997587;28;20867;-69
2022/01/03 00:47:44;;;;;;;11.60;6.07;;;8.90;1.00;;;;;;4997466;28;20548;-69
2022/01/03 00:50:15;;;;;;;11.17;6.30;;;8.90;1.00;;;;;;4978725;28;20202;-70
2022/01/03 00:52:41;;;;;;;13.33;6.23;;;8.90;1.00;;;;;;4997354;28;20431;-69
2022/01/03 00:55:07;;;;;;;11.93;6.97;;;8.90;1.00;;;;;;4997176;28;20550;-69
2022/01/03 00:58:02;;;;;;;9.07;8.17;;;8.90;1.00;;;;;;4997229;28;20145;-71
2022/01/03 01:00:31;;;;;;;12.87;9.10;;;8.90;1.00;;;;;;4995964;28;20435;-71
2022/01/03 01:03:05;;;;;;;15.47;10.07;;;8.90;1.00;;;;;;4997161;28;20956;-70
2022/01/03 01:05:31;;;;;;;17.40;10.77;;;8.90;1.00;;;;;;4996888;28;20970;-71
2022/01/03 01:07:58;;;;;;;22.10;11.80;;;8.90;1.00;;;;;;4979433;28;20412;-71
2022/01/03 01:10:30;;;;;;;20.20;12.60;;;8.90;1.00;;;;;;4995891;28;20784;-69
2022/01/03 01:12:56;;;;;;;26.33;12.40;;;8.90;1.00;;;;;;4997011;28;20412;-71
2022/01/03 01:15:24;;;;;;;22.43;12.83;;;9.00;1.00;;;;;;4996824;28;20942;-70
2022/01/03 01:17:53;;;;;;;30.07;14.47;;;9.00;1.00;;;;;;4979235;28;20468;-71
2022/01/03 01:20:20;;;;;;;21.57;12.40;;;9.00;1.00;;;;;;4995671;28;20441;-70
2022/01/03 01:22:47;;;;;;;19.37;11.60;;;9.10;1.00;;;;;;4979051;28;20486;-69
2022/01/03 01:27:50;;;;;;;24.80;13.37;;;9.10;1.00;;;;;;4996587;28;20437;-71
2022/01/03 01:30:17;;;;;;;18.93;11.53;;;9.10;1.00;;;;;;4995603;28;20459;-71
2022/01/03 01:32:50;;;;;;;17.73;11.63;;;9.10;1.00;;;;;;4996353;28;20895;-69
2022/01/03 01:35:19;;;;;;;15.13;11.27;;;9.10;1.00;;;;;;4995613;28;20463;-70
2022/01/03 01:37:47;;;;;;;24.53;11.17;;;9.10;1.00;;;;;;4996475;28;20442;-69
2022/01/03 01:40:14;;;;;;;19.57;12.37;;;9.10;1.00;;;;;;4995486;28;20452;-68
2022/01/03 01:42:45;;;;;;;21.90;10.80;;;9.10;1.00;;;;;;4996301;28;20483;-69
2022/01/03 01:45:11;;;;;;;19.93;10.27;;;9.10;1.00;;;;;;4996349;28;20407;-68
2022/01/03 01:47:40;;;;;;;18.87;9.23;;;9.10;1.00;;;;;;4996305;28;20480;-68
2022/01/03 01:50:08;;;;;;;8.60;7.00;;;9.10;1.00;;;;;;4977877;28;20837;-68
2022/01/03 01:52:37;;;;;;;11.93;6.30;;;9.10;1.70;;;;;;4996121;28;20435;-69
2022/01/03 01:55:12;;;;;;;14.80;7.83;;;9.10;1.70;;;;;;4996060;28;20942;-68
2022/01/03 01:57:53;;;;;;;10.10;4.40;;;9.10;3.40;;;;;;4996150;28;20418;-69
2022/01/03 02:00:19;;;;;;;13.20;5.40;;;9.10;4.20;;;;;;4995205;28;20425;-67
2022/01/03 02:03:06;;;;;;;8.83;5.50;;;9.00;4.70;;;;;;4978443;28;20952;-70
2022/01/03 02:05:41;;;;;;;8.17;4.50;;;9.00;7.50;;;;;;4995963;28;20414;-68
2022/01/03 02:08:25;;;;;;;5.10;4.07;;;8.90;9.40;;;;;;4995808;28;20404;-68
2022/01/03 02:11:18;;;;;;;4.20;3.80;;;8.90;13.80;;;;;;4994948;28;20441;-68
2022/01/03 02:13:45;;;;;;;3.87;3.50;;;8.90;14.00;;;;;;4990537;28;20429;-68
2022/01/03 02:16:11;;;;;;;3.50;3.20;;;8.90;18.20;;;;;;4995785;28;20411;-68
2022/01/03 02:18:36;;;;;;;2.60;2.30;;;8.90;19.80;;;;;;4994734;28;20411;-68
2022/01/03 02:21:03;;;;;;;2.70;2.60;;;8.80;19.70;;;;;;4995640;28;20216;-69
2022/01/03 02:23:29;;;;;;;5.27;2.80;;;8.70;19.60;;;;;;4995699;28;20545;-69
2022/01/03 02:25:55;;;;;;;2.30;2.10;;;8.70;20.40;;;;;;4995616;28;20412;-70
2022/01/03 02:28:22;;;;;;;3.73;2.13;;;8.70;21.80;;;;;;4995469;28;20466;-76
2022/01/03 02:30:49;;;;;;;2.50;2.33;;;8.70;21.70;;;;;;4994556;28;20196;-71
2022/01/03 02:33:16;;;;;;;3.37;2.10;;;8.60;21.00;;;;;;4995211;28;20436;-69
2022/01/03 02:35:43;;;;;;;2.30;2.00;;;8.50;19.50;;;;;;4995445;28;20915;-70
2022/01/03 02:38:09;;;;;;;4.30;2.00;;;8.50;21.90;;;;;;4995477;28;20479;-69
2022/01/03 02:40:35;;;;;;;5.40;2.20;;;8.50;22.40;;;;;;4994415;28;20528;-69
2022/01/03 02:43:01;;;;;;;3.13;1.53;;;8.50;21.60;;;;;;4995256;28;20409;-69
2022/01/03 02:45:27;;;;;;;1.50;1.40;;;8.40;20.60;;;;;;4995095;28;20794;-71
2022/01/03 02:47:56;;;;;;;2.17;1.40;;;8.40;21.10;;;;;;4995385;28;20412;-69
2022/01/03 02:50:24;;;;;;;10.03;1.77;;;8.40;20.00;;;;;;4994076;28;20423;-71
2022/01/03 02:52:50;;;;;;;7.67;1.90;;;8.40;21.30;;;;;;4995057;28;20861;-70
2022/01/03 02:55:17;;;;;;;9.27;1.60;;;8.30;21.50;;;;;;4994855;28;20458;-69
2022/01/03 02:57:45;;;;;;;4.60;1.53;;;8.30;22.80;;;;;;4995080;28;20205;-69
2022/01/03 03:00:17;;;;;;;4.80;1.67;;;8.30;23.40;;;;;;4992557;28;20428;-69
2022/01/03 03:02:43;;;;;;;4.97;2.00;;;8.30;24.20;;;;;;4994864;28;20459;-68
2022/01/03 03:05:10;;;;;;;4.03;1.70;;;8.30;25.20;;;;;;4994827;28;20400;-70
2022/01/03 03:07:37;;;;;;;3.00;1.80;;;8.30;25.20;;;;;;4994744;28;20176;-68
2022/01/03 03:10:17;;;;;;;2.70;1.83;;;8.30;25.20;;;;;;4993778;28;20436;-68
2022/01/03 03:12:44;;;;;;;3.17;2.20;;;8.20;25.10;;;;;;4977164;28;20920;-69
2022/01/03 03:15:11;;;;;;;1.70;1.57;;;8.20;25.40;;;;;;4994433;28;20471;-71
2022/01/03 03:17:41;;;;;;;3.00;2.33;;;8.20;25.00;;;;;;4994528;28;20400;-69
2022/01/03 03:20:11;;;;;;;3.00;2.20;;;8.20;25.50;;;;;;4993704;28;20423;-69
2022/01/03 03:22:38;;;;;;;2.60;1.60;;;8.20;25.10;;;;;;4977145;28;20420;-70
2022/01/03 03:25:14;;;;;;;2.80;1.73;;;8.20;25.10;;;;;;4994452;28;20805;-71
2022/01/03 03:27:46;;;;;;;2.17;1.97;;;8.20;26.00;;;;;;4994512;28;20423;-71
2022/01/03 03:30:21;;;;;;;2.50;1.80;;;8.10;26.30;;;;;;4993388;28;20439;-69
2022/01/03 03:32:49;;;;;;;3.17;2.00;;;8.20;30.20;;;;;;4994493;28;20415;-69
2022/01/03 03:35:15;;;;;;;1.70;1.60;;;8.20;29.40;;;;;;4994236;28;20534;-70
2022/01/03 03:37:41;;;;;;;1.13;1.03;;;8.20;30.80;;;;;;4994165;28;20435;-69
2022/01/03 03:40:07;;;;;;;2.37;2.00;;;8.20;30.90;;;;;;4993503;28;20458;-69
2022/01/03 03:42:33;;;;;;;1.43;1.33;;;8.20;30.80;;;;;;4994281;28;20172;-70
2022/01/03 03:44:59;;;;;;;3.63;1.60;;;8.10;30.60;;;;;;4994445;28;20741;-68
2022/01/03 03:47:25;;;;;;;2.73;2.53;;;8.10;30.90;;;;;;4976851;28;20928;-72
2022/01/03 03:49:50;;;;;;;3.40;1.70;;;8.00;30.70;;;;;;4993138;28;20200;-69
2022/01/03 03:52:16;;;;;;;7.53;2.40;;;8.00;30.70;;;;;;4976546;28;20200;-71
2022/01/03 03:54:42;;;;;;;6.53;3.03;;;8.00;35.30;;;;;;4994165;28;20204;-71
2022/01/03 03:57:08;;;;;;;7.60;2.70;;;8.00;36.00;;;;;;4993788;28;20756;-71
2022/01/03 03:59:34;;;;;;;5.57;2.70;;;8.00;38.00;;;;;;4991760;28;20507;-71
2022/01/03 04:02:00;;;;;;;11.00;2.60;;;8.00;40.30;;;;;;4994036;28;20499;-70
2022/01/03 04:04:26;;;;;;;4.10;2.07;;;8.10;41.80;;;;;;4994236;28;20479;-69
2022/01/03 04:06:52;;;;;;;4.37;3.27;;;8.10;42.60;;;;;;4993847;28;20188;-69
2022/01/03 04:09:17;;;;;;;3.33;2.10;;;8.10;44.90;;;;;;4993220;28;20412;-69
2022/01/03 04:11:43;;;;;;;8.70;3.80;;;8.10;45.20;;;;;;4993843;28;20275;-72
2022/01/03 04:14:09;;;;;;;4.40;2.10;;;8.10;45.20;;;;;;4976374;28;20211;-70
2022/01/03 04:16:35;;;;;;;3.10;2.90;;;8.10;45.10;;;;;;4993951;28;20165;-69
2022/01/03 04:19:01;;;;;;;6.50;2.77;;;8.10;45.10;;;;;;4993009;28;20408;-71
2022/01/03 04:21:27;;;;;;;5.23;3.40;;;8.10;45.10;;;;;;4993744;28;20450;-71
2022/01/03 04:23:54;;;;;;;5.47;3.07;;;8.10;45.00;;;;;;4993720;28;20861;-69
2022/01/03 04:26:20;;;;;;;5.13;2.50;;;8.10;43.10;;;;;;4993772;28;20173;-71
2022/01/03 04:28:46;;;;;;;8.33;3.23;;;8.10;41.20;;;;;;4993075;28;20892;-69
2022/01/03 04:31:12;;;;;;;6.60;3.23;;;8.10;39.80;;;;;;4993661;28;20434;-72
2022/01/03 04:33:37;;;;;;;4.47;2.10;;;8.10;38.90;;;;;;4993799;28;20408;-72
2022/01/03 04:36:05;;;;;;;2.43;2.23;;;8.10;38.10;;;;;;4993470;28;20240;-72
2022/01/03 04:38:32;;;;;;;11.67;3.00;;;8.10;33.70;;;;;;4993247;28;20529;-76
2022/01/03 04:41:01;;;;;;;11.13;2.83;;;8.10;30.80;;;;;;4976150;28;20793;-69
2022/01/03 04:43:27;;;;;;;4.03;3.43;;;8.10;30.80;;;;;;4993759;28;20407;-70
2022/01/03 04:45:54;;;;;;;5.30;3.83;;;8.10;30.90;;;;;;4993834;28;20757;-71
2022/01/03 04:48:20;;;;;;;3.50;2.43;;;8.20;30.90;;;;;;4993672;28;20634;-69
2022/01/03 04:50:46;;;;;;;9.37;3.33;;;8.20;30.90;;;;;;4992704;28;20534;-69
2022/01/03 04:53:12;;;;;;;11.93;2.87;;;8.20;28.90;;;;;;4993829;28;20435;-72
2022/01/03 04:55:37;;;;;;;7.17;3.43;;;8.20;27.70;;;;;;4993672;28;20204;-69
2022/01/03 04:58:03;;;;;;;3.03;2.60;;;8.20;25.80;;;;;;4993615;28;20169;-72
2022/01/03 05:00:29;;;;;;;5.83;2.10;;;8.20;26.70;;;;;;4992544;28;20193;-70
2022/01/03 05:02:54;;;;;;;9.33;2.57;;;8.20;25.60;;;;;;4993548;28;20169;-69
2022/01/03 05:05:21;;;;;;;11.10;3.67;;;8.20;24.90;;;;;;4992557;28;20173;-69
2022/01/03 05:07:47;;;;;;;7.33;2.77;;;8.30;23.90;;;;;;4993725;28;20538;-69
2022/01/03 05:10:13;;;;;;;11.30;3.10;;;8.30;23.00;;;;;;4994126;28;20428;-71
2022/01/03 05:12:39;;;;;;;9.17;3.47;;;8.30;24.10;;;;;;4996906;28;20415;-72
2022/01/03 05:15:05;;;;;;;8.13;2.87;;;8.30;22.30;;;;;;4996932;28;20200;-69
2022/01/03 05:17:31;;;;;;;3.73;2.70;;;8.30;21.90;;;;;;4996850;28;20169;-71
2022/01/03 05:19:57;;;;;;;6.87;3.60;;;8.30;20.80;;;;;;4995899;28;20428;-68
2022/01/03 05:22:23;;;;;;;10.57;4.07;;;8.30;20.20;;;;;;4996622;28;20904;-69
2022/01/03 05:24:48;;;;;;;3.53;3.03;;;8.40;20.40;;;;;;4996638;28;20412;-69
2022/01/03 05:27:14;;;;;;;6.07;4.03;;;8.40;19.50;;;;;;4996799;28;20220;-71
2022/01/03 05:29:40;;;;;;;15.90;4.27;;;8.40;19.40;;;;;;4995440;28;20656;-68
2022/01/03 05:32:05;;;;;;;16.70;3.70;;;8.40;18.10;;;;;;4996605;28;20256;-71
2022/01/03 05:34:31;;;;;;;10.43;5.60;;;8.40;19.90;;;;;;4979020;28;20200;-71
2022/01/03 05:36:57;;;;;;;12.20;4.87;;;8.40;19.40;;;;;;4996421;28;20463;-68
2022/01/03 05:39:22;;;;;;;7.17;3.63;;;8.50;19.50;;;;;;4995694;28;20231;-69
2022/01/03 05:41:48;;;;;;;9.37;3.80;;;8.40;19.40;;;;;;4996287;28;20205;-68
2022/01/03 05:44:14;;;;;;;13.23;2.60;;;8.40;19.30;;;;;;4996397;28;20180;-69
2022/01/03 05:46:39;;;;;;;13.93;5.17;;;8.40;18.00;;;;;;4996214;28;20180;-69
2022/01/03 05:49:07;;;;;;;14.80;5.00;;;8.40;17.60;;;;;;4995537;28;20171;-68
2022/01/03 05:51:32;;;;;;;20.93;5.37;;;8.40;17.10;;;;;;4978661;28;20597;-72
2022/01/03 05:53:58;;;;;;;10.80;4.30;;;8.40;16.00;;;;;;4996239;28;20412;-71
2022/01/03 05:56:23;;;;;;;9.70;3.50;;;8.50;16.70;;;;;;4978643;28;20580;-72
2022/01/03 05:58:50;;;;;;;17.40;4.50;;;8.50;13.50;;;;;;4993785;28;20173;-69
2022/01/03 06:01:15;;;;;;;14.73;4.40;;;8.40;13.50;;;;;;4995973;28;20180;-71
2022/01/03 06:03:41;;;;;;;23.80;4.57;;;8.50;13.60;;;;;;4996007;28;20500;-72
2022/01/03 06:08:36;;;;;;;5.23;3.10;;;8.50;10.80;;;;;;4995191;28;20169;-71
2022/01/03 06:11:02;;;;;;;10.33;4.33;;;8.50;7.50;;;;;;4995742;28;20804;-71
2022/01/03 06:13:28;;;;;;;6.07;3.80;;;8.50;7.40;;;;;;4995919;28;20754;-71
2022/01/03 06:15:53;;;;;;;4.67;3.43;;;8.40;3.60;;;;;;4995648;28;20506;-72
2022/01/03 06:18:20;;;;;;;24.90;5.43;;;8.40;2.70;;;;;;4995863;28;20176;-69
2022/01/03 06:20:48;;;;;;;5.73;3.20;;;8.40;1.10;;;;;;4994328;28;20412;-68
2022/01/03 06:23:16;;;;;;;26.23;3.73;;;8.40;1.10;;;;;;4995595;28;20411;-71
2022/01/03 06:25:41;;;;;;;10.00;3.80;;;8.40;1.10;;;;;;4995668;28;20415;-68
2022/01/03 06:28:09;;;;;;;14.93;5.80;;;8.40;1.00;;;;;;4995582;28;20412;-71
2022/01/03 06:30:39;;;;;;;13.70;4.13;;;8.40;1.00;;;;;;4994446;28;20562;-69
2022/01/03 06:33:05;;;;;;;4.10;3.70;;;8.50;1.10;;;;;;4995297;28;20415;-72
2022/01/03 06:35:32;;;;;;;14.00;4.17;;;8.50;1.00;;;;;;4995406;28;20459;-68
2022/01/03 06:37:58;;;;;;;8.80;4.00;;;8.50;1.00;;;;;;4995272;28;20487;-71
2022/01/03 06:40:25;;;;;;;7.80;4.50;;;8.50;1.00;;;;;;4994370;28;20566;-69
2022/01/03 06:42:51;;;;;;;8.53;4.80;;;8.50;1.00;;;;;;4995187;28;20546;-69
2022/01/03 06:45:16;;;;;;;9.27;4.00;;;8.50;1.00;;;;;;4995209;28;20832;-71
2022/01/03 06:47:42;;;;;;;11.73;4.33;;;8.50;1.00;;;;;;4995262;28;20912;-70
2022/01/03 06:50:09;;;;;;;19.30;4.20;;;8.50;1.00;;;;;;4994282;28;20247;-71
2022/01/03 06:52:35;;;;;;;8.03;3.33;;;8.50;1.00;;;;;;4995071;28;20509;-72
2022/01/03 06:55:01;;;;;;;10.90;4.40;;;8.50;1.00;;;;;;4995021;28;20456;-69
2022/01/03 06:57:26;;;;;;;6.17;4.27;;;8.60;1.00;;;;;;4994871;28;20427;-70
2022/01/03 06:59:52;;;;;;;18.90;3.67;;;8.60;1.00;;;;;;4993955;28;20272;-68
2022/01/03 07:02:18;;;;;;;21.00;4.20;;;8.60;1.00;;;;;;4995121;28;20196;-71
2022/01/03 07:04:43;;;;;;;5.60;4.43;;;8.60;1.00;;;;;;4994942;28;20176;-68
2022/01/03 07:07:09;;;;;;;8.57;4.07;;;8.60;1.00;;;;;;4977353;28;20175;-70
2022/01/03 07:09:34;;;;;;;5.17;3.90;;;8.60;1.00;;;;;;4993763;28;20176;-69
2022/01/03 07:12:00;;;;;;;7.13;3.63;;;8.60;1.00;;;;;;4994834;28;20626;-68
2022/01/03 07:19:43;;;;;;;3.27;2.80;;;8.60;1.00;;;;;;4993799;28;20191;-73
2022/01/03 07:22:09;;;;;;;11.50;3.97;;;8.60;1.00;;;;;;4994658;28;20411;-71
2022/01/03 07:24:38;;;;;;;8.33;3.17;;;8.60;1.00;;;;;;4994529;28;20396;-69
2022/01/03 07:27:05;;;;;;;10.23;3.83;;;8.60;1.00;;;;;;4990588;28;20514;-69
2022/01/03 07:29:31;;;;;;;25.37;4.93;;;8.60;1.00;;;;;;5013008;28;20491;-71
2022/01/03 07:31:57;;;;;;;14.53;3.50;;;8.60;1.00;;;;;;5013439;28;20399;-68
2022/01/03 07:34:24;;;;;;;11.37;3.87;;;8.60;1.00;;;;;;5013888;28;20789;-70
2022/01/03 07:36:50;;;;;;;12.77;4.60;;;8.70;1.00;;;;;;5013996;28;20454;-68
2022/01/03 07:39:16;;;;;;;17.30;4.10;;;8.60;1.00;;;;;;5012976;28;20430;-69
2022/01/03 07:41:42;;;;;;;10.20;4.27;;;8.60;1.00;;;;;;5013678;28;20522;-68
2022/01/03 07:44:07;;;;;;;13.70;4.20;;;8.60;1.00;;;;;;5014014;28;20422;-69
2022/01/03 07:46:34;;;;;;;15.80;3.53;;;8.60;1.00;;;;;;5013899;28;20168;-69
2022/01/03 07:48:59;;;;;;;13.93;4.30;;;8.60;1.00;;;;;;5012949;28;20160;-69
2022/01/03 07:51:25;;;;;;;13.20;4.03;;;8.60;1.00;;;;;;5013578;28;20985;-69
2022/01/03 07:53:51;;;;;;;17.93;4.70;;;8.70;1.00;;;;;;5013709;28;20243;-72
2022/01/03 07:56:18;;;;;;;8.83;3.87;;;8.70;1.00;;;;;;5012745;28;20177;-72
2022/01/03 07:58:44;;;;;;;8.40;4.10;;;8.70;1.00;;;;;;5012881;28;20161;-69
2022/01/03 08:01:10;;;;;;;6.23;3.20;;;8.60;1.00;;;;;;5013768;28;20755;-68
2022/01/03 08:03:36;;;;;;;9.03;3.70;;;8.60;1.00;;;;;;5012440;28;20860;-71
2022/01/03 08:06:02;;;;;;;9.03;3.80;;;8.70;1.00;;;;;;5013697;28;20415;-68
2022/01/03 08:08:28;;;;;;;11.13;3.50;;;8.70;1.00;;;;;;5013081;28;20414;-75
2022/01/03 08:10:54;;;;;;;13.23;4.27;;;8.70;1.00;;;;;;5013111;28;20421;-70
2022/01/03 08:13:19;;;;;;;7.17;4.00;;;8.70;1.00;;;;;;5013593;28;20172;-70
2022/01/03 08:15:45;;;;;;;12.87;4.17;;;8.70;1.00;;;;;;5013374;28;20200;-69
2022/01/03 08:18:11;;;;;;;12.27;3.83;;;8.70;1.00;;;;;;5013451;28;20164;-69
2022/01/03 08:20:36;;;;;;;7.90;3.93;;;8.70;1.00;;;;;;5012557;28;20183;-70
2022/01/03 08:23:02;;;;;;;18.83;4.03;;;8.70;1.00;;;;;;5013426;28;20251;-69
2022/01/03 08:25:30;;;;;;;16.40;3.70;;;8.70;1.00;;;;;;5013495;28;20248;-69
2022/01/03 08:27:56;;;;;;;25.27;3.70;;;8.70;1.00;;;;;;5013230;28;20435;-71
2022/01/03 08:30:22;;;;;;;11.47;2.93;;;8.70;1.00;;;;;;5012306;28;20904;-69
2022/01/03 08:32:47;;;;;;;9.83;4.03;;;8.70;1.00;;;;;;5013314;28;20449;-69
2022/01/03 08:35:13;;;;;;;14.70;2.73;;;8.70;1.00;;;;;;5013119;28;20206;-69
2022/01/03 08:37:39;;;;;;;7.80;2.70;;;8.70;1.00;;;;;;5013119;28;20165;-69
2022/01/03 08:40:06;;;;;;;12.27;2.80;;;8.70;1.00;;;;;;5012133;28;20192;-70
2022/01/03 08:42:33;;;;;;;19.47;4.33;;;8.80;1.00;;;;;;5013234;28;20161;-69
2022/01/03 08:45:01;;;;;;;16.00;3.90;;;8.80;1.00;;;;;;5014805;28;20404;-69
2022/01/03 08:47:27;;;;;;;14.80;4.33;;;8.80;1.00;;;;;;5016936;28;20469;-69
2022/01/03 08:49:52;;;;;;;4.57;2.80;;;8.80;1.00;;;;;;5015916;28;20427;-70
2022/01/03 08:52:18;;;;;;;10.20;2.90;;;8.80;1.00;;;;;;5016513;28;20552;-70
2022/01/03 08:54:44;;;;;;;12.87;3.40;;;8.80;1.00;;;;;;5016829;28;20191;-70
2022/01/03 08:57:09;;;;;;;12.70;4.33;;;8.80;1.00;;;;;;5016754;28;20560;-70
2022/01/03 08:59:35;;;;;;;7.33;2.93;;;8.80;1.00;;;;;;5015629;28;20648;-70
2022/01/03 09:02:00;;;;;;;10.57;3.20;;;8.80;1.00;;;;;;5016693;28;20243;-70
2022/01/03 09:04:26;;;;;;;8.23;4.10;;;8.80;1.00;;;;;;5016556;28;20529;-69
2022/01/03 09:06:52;;;;;;;16.70;3.07;;;8.80;1.00;;;;;;5015545;28;20180;-69
2022/01/03 09:09:18;;;;;;;21.93;4.60;;;8.80;1.00;;;;;;5015918;28;20165;-70
2022/01/03 09:11:44;;;;;;;5.73;2.80;;;8.80;1.00;;;;;;5016435;28;20422;-71
2022/01/03 09:14:10;;;;;;;15.10;3.60;;;8.90;1.00;;;;;;5016385;28;20755;-70
2022/01/03 09:16:35;;;;;;;18.53;3.13;;;8.90;1.00;;;;;;5016399;28;20164;-69
2022/01/03 09:19:01;;;;;;;17.17;4.27;;;8.90;1.00;;;;;;5015405;28;20274;-70
2022/01/03 09:21:28;;;;;;;11.93;4.03;;;8.90;1.00;;;;;;5016131;28;20708;-70
2022/01/03 09:24:15;;;;;;;11.50;3.70;;;9.00;1.00;;;;;;5016284;28;20408;-70
2022/01/03 09:29:23;;;;;;;10.23;3.20;;;9.00;1.00;;;;;;5015280;28;20477;-70
2022/01/03 09:31:49;;;;;;;12.77;3.53;;;9.00;1.00;;;;;;5015916;28;20494;-70
2022/01/03 09:34:14;;;;;;;12.73;3.53;;;9.10;1.00;;;;;;5016136;28;20208;-71
2022/01/03 09:36:40;;;;;;;10.13;2.80;;;9.10;1.00;;;;;;5015931;28;20168;-75
2022/01/03 09:39:07;;;;;;;12.80;4.37;;;9.10;1.00;;;;;;5014774;28;20168;-70
2022/01/03 09:41:33;;;;;;;7.47;3.57;;;9.10;1.00;;;;;;5015915;28;20184;-70
2022/01/03 09:44:05;;;;;;;6.77;3.40;;;9.10;1.00;;;;;;5015599;28;20489;-71
2022/01/03 09:46:40;;;;;;;17.23;5.40;;;9.10;1.00;;;;;;5015520;28;21001;-72
2022/01/03 09:49:08;;;;;;;15.97;3.30;;;9.20;1.00;;;;;;4989156;28;20424;-70
2022/01/03 09:51:34;;;;;;;11.67;3.60;;;9.20;1.00;;;;;;4995989;28;20514;-71
2022/01/03 09:54:07;;;;;;;15.53;3.43;;;9.30;1.00;;;;;;4996217;28;20500;-69
2022/01/03 09:56:35;;;;;;;11.67;3.17;;;9.30;1.00;;;;;;4995248;28;20484;-70
2022/01/03 09:59:02;;;;;;;14.50;3.87;;;9.40;1.00;;;;;;5001557;28;20427;-70
2022/01/03 10:01:29;;;;;;;10.43;4.17;;;9.30;1.00;;;;;;5015431;28;20432;-71
2022/01/03 10:03:55;;;;;;;17.00;3.77;;;9.30;1.00;;;;;;5015157;28;20473;-70
2022/01/03 10:06:21;;;;;;;23.03;3.93;;;9.40;1.00;;;;;;5015582;28;20752;-71
2022/01/03 10:08:47;;;;;;;12.30;3.97;;;9.40;1.00;;;;;;5013975;28;20191;-70
2022/01/03 10:11:14;;;;;;;9.53;3.10;;;9.30;1.00;;;;;;5015406;28;20433;-71
2022/01/03 10:13:40;;;;;;;12.17;3.00;;;9.30;1.00;;;;;;5014593;28;20439;-70
2022/01/03 10:16:06;;;;;;;18.10;4.20;;;9.30;1.00;;;;;;5015283;28;20945;-70
2022/01/03 10:18:33;;;;;;;19.93;3.70;;;9.30;1.00;;;;;;5014267;28;20404;-72
2022/01/03 10:21:00;;;;;;;7.30;3.83;;;9.30;1.00;;;;;;4995583;28;20410;-69
2022/01/03 10:23:25;;;;;;;9.23;3.43;;;9.30;1.00;;;;;;4995648;28;20408;-70
2022/01/03 10:25:51;;;;;;;16.50;3.70;;;9.30;1.00;;;;;;5014708;28;20930;-71
2022/01/03 10:28:25;;;;;;;6.97;3.47;;;9.30;1.00;;;;;;4994230;28;20188;-71
2022/01/03 10:30:52;;;;;;;12.77;3.73;;;9.30;1.00;;;;;;5013219;28;20204;-71
2022/01/03 10:33:20;;;;;;;10.47;4.20;;;9.30;1.00;;;;;;5014908;28;20407;-70
2022/01/03 10:35:49;;;;;;;14.33;3.40;;;9.30;1.00;;;;;;5014664;28;20459;-70
2022/01/03 10:38:43;;;;;;;16.53;3.83;;;9.30;1.00;;;;;;5014562;28;20474;-70
2022/01/03 10:41:18;;;;;;;7.63;4.70;;;9.30;1.00;;;;;;4999562;28;20451;-70
2022/01/03 10:43:53;;;;;;;12.10;3.47;;;9.30;1.00;;;;;;5014625;28;20406;-73
2022/01/03 10:46:50;;;;;;;7.87;3.30;;;9.40;1.00;;;;;;4995467;28;20407;-69
2022/01/03 10:49:19;;;;;;;11.53;4.30;;;9.40;1.00;;;;;;5005594;28;20436;-71
2022/01/03 10:51:46;;;;;;;19.93;4.13;;;9.30;1.00;;;;;;4994891;28;20865;-71
2022/01/03 10:54:16;;;;;;;27.57;5.10;;;9.30;1.00;;;;;;4997108;28;20451;-71
2022/01/03 10:56:44;;;;;;;13.03;3.10;;;9.30;1.00;;;;;;5014743;28;20431;-71
2022/01/03 10:59:14;;;;;;;8.43;3.60;;;9.30;1.00;;;;;;5013369;28;20412;-71
2022/01/03 11:01:41;;;;;;;4.47;2.90;;;9.30;1.00;;;;;;5014138;28;20457;-71
2022/01/03 11:04:07;;;;;;;7.70;3.40;;;9.30;1.00;;;;;;5014552;28;20403;-71
2022/01/03 11:11:51;;;;;;;2.63;2.43;;;9.30;1.00;;;;;;4994990;28;20423;-72
2022/01/03 11:14:33;;;;;;;7.90;4.00;;;9.30;1.00;;;;;;4998053;28;20501;-71
2022/01/03 11:16:59;;;;;;;14.60;3.67;;;9.30;1.00;;;;;;5014238;28;20403;-71
2022/01/03 11:19:38;;;;;;;14.63;3.10;;;9.40;1.00;;;;;;5012982;28;20443;-71
2022/01/03 11:22:04;;;;;;;25.77;4.60;;;9.30;1.00;;;;;;5014280;28;20410;-72
2022/01/03 11:24:30;;;;;;;7.80;3.20;;;9.30;1.00;;;;;;5013874;28;20971;-70
2022/01/03 11:26:56;;;;;;;21.53;4.67;;;9.30;1.00;;;;;;5014150;28;20811;-71
2022/01/03 11:29:22;;;;;;;13.07;4.17;;;9.30;1.00;;;;;;5012827;28;20442;-72
2022/01/03 11:31:54;;;;;;;5.53;3.37;;;9.30;1.00;;;;;;5013884;28;20931;-72
2022/01/03 11:34:25;;;;;;;19.43;4.30;;;9.30;1.00;;;;;;5013400;28;20451;-72
2022/01/03 11:36:52;;;;;;;13.50;3.97;;;9.30;1.00;;;;;;5013888;28;20472;-71
2022/01/03 11:39:22;;;;;;;25.30;3.00;;;9.30;1.00;;;;;;5012617;28;20457;-72
2022/01/03 11:41:50;;;;;;;8.67;3.40;;;9.30;1.00;;;;;;5013710;28;20411;-73
2022/01/03 11:44:16;;;;;;;8.17;3.50;;;9.30;1.00;;;;;;5013552;28;20915;-71
2022/01/03 11:46:43;;;;;;;16.43;3.27;;;9.40;1.00;;;;;;5013835;28;20752;-71
2022/01/03 11:49:10;;;;;;;37.47;3.90;;;9.40;1.00;;;;;;5012869;28;20427;-73
2022/01/03 11:51:37;;;;;;;9.83;3.13;;;9.40;1.00;;;;;;5013123;28;20455;-72
2022/01/03 11:54:05;;;;;;;10.30;4.17;;;9.40;1.00;;;;;;5013864;28;20399;-71
2022/01/03 11:56:34;;;;;;;4.90;3.40;;;9.30;1.00;;;;;;5013494;28;20430;-71
2022/01/03 12:04:28;;;;;;;15.23;4.03;;;9.40;1.00;;;;;;5013209;28;20434;-71
2022/01/03 12:07:16;;;;;;;4.03;2.30;;;9.40;1.00;;;;;;5013774;28;20753;-72
2022/01/03 12:09:44;;;;;;;6.50;2.73;;;9.40;1.00;;;;;;5012257;28;20431;-72
2022/01/03 12:12:28;;;;;;;9.90;3.60;;;9.40;1.00;;;;;;5013614;28;20502;-71
2022/01/03 12:14:57;;;;;;;11.27;3.17;;;9.40;1.00;;;;;;5012903;28;20455;-71
2022/01/03 12:17:42;;;;;;;6.63;3.97;;;9.40;1.00;;;;;;5013659;28;20404;-74
2022/01/03 12:20:09;;;;;;;9.73;2.90;;;9.40;1.00;;;;;;5015423;28;20478;-72
2022/01/03 12:22:48;;;;;;;9.27;3.83;;;9.40;1.00;;;;;;5017476;28;20764;-74
2022/01/03 12:25:32;;;;;;;17.70;3.93;;;9.30;1.00;;;;;;5017249;28;20431;-72
2022/01/03 12:28:00;;;;;;;11.93;3.60;;;9.30;1.00;;;;;;5017386;28;20976;-72
2022/01/03 12:30:31;;;;;;;12.60;2.77;;;9.30;1.00;;;;;;5016170;28;20963;-71
2022/01/03 12:33:08;;;;;;;8.07;4.43;;;9.20;1.00;;;;;;5017158;28;20427;-70
2022/01/03 12:35:42;;;;;;;9.70;2.60;;;8.90;1.00;;;;;;5016997;28;20903;-71
2022/01/03 12:38:12;;;;;;;18.90;3.43;;;8.70;1.00;;;;;;5017164;28;20418;-70
2022/01/03 12:40:56;;;;;;;15.60;4.57;;;8.60;1.00;;;;;;5015936;28;20489;-70
2022/01/03 12:43:39;;;;;;;7.53;2.97;;;8.60;1.00;;;;;;5017120;28;20447;-70
2022/01/03 12:46:17;;;;;;;6.67;2.20;;;8.60;1.00;;;;;;5016647;28;20814;-71
2022/01/03 12:48:43;;;;;;;7.93;3.07;;;8.60;1.00;;;;;;5016312;28;20413;-71
2022/01/03 12:51:12;;;;;;;5.03;2.60;;;8.60;1.00;;;;;;5016785;28;20463;-71
2022/01/03 12:53:41;;;;;;;16.23;4.20;;;8.60;1.00;;;;;;5016953;28;20172;-69
2022/01/03 12:56:16;;;;;;;6.33;2.63;;;8.70;1.00;;;;;;5016322;28;20464;-71
2022/01/03 12:58:48;;;;;;;23.70;4.30;;;8.70;1.00;;;;;;5016091;28;20489;-70
2022/01/03 13:01:17;;;;;;;7.43;2.43;;;8.70;1.00;;;;;;5016533;28;20467;-69
2022/01/03 13:03:43;;;;;;;14.83;2.80;;;8.80;1.00;;;;;;4999259;28;20403;-69
2022/01/03 13:06:24;;;;;;;8.43;5.13;;;8.70;1.00;;;;;;5016461;28;20454;-71
2022/01/03 13:08:55;;;;;;;17.30;3.97;;;8.80;1.00;;;;;;5016006;28;20729;-69
2022/01/03 13:11:43;;;;;;;11.07;4.23;;;8.80;1.00;;;;;;5016458;28;20446;-71
2022/01/03 13:14:20;;;;;;;14.57;2.80;;;8.80;1.00;;;;;;5016091;28;20783;-70
2022/01/03 13:16:51;;;;;;;7.03;2.17;;;8.80;1.00;;;;;;5016366;28;20457;-73
2022/01/03 13:19:36;;;;;;;15.67;2.80;;;8.80;1.00;;;;;;5015524;28;20851;-72
2022/01/03 13:22:06;;;;;;;6.50;2.30;;;8.90;1.00;;;;;;5016377;28;20453;-72
2022/01/03 13:24:38;;;;;;;15.40;3.97;;;8.90;1.00;;;;;;5016056;28;20469;-70
2022/01/03 13:27:03;;;;;;;9.40;3.23;;;8.90;1.00;;;;;;5016395;28;20407;-71